createdAt,value
2023-03-22T00:00:39.959Z,101064.66
2023-03-22T00:03:10.837Z,101063.47
2023-03-22T00:05:42.586Z,101053.78
2023-03-22T00:08:11.215Z,101064.22
2023-03-22T00:10:46.596Z,101056.44
2023-03-22T00:13:16.278Z,101057.94
2023-03-22T00:15:48.576Z,101049.03
2023-03-22T00:18:17.422Z,101047.03
2023-03-22T00:20:50.123Z,101040.78
2023-03-22T00:23:17.306Z,101034.88
2023-03-22T00:25:45.436Z,101036.06
2023-03-22T00:28:17.129Z,101032.50
2023-03-22T00:30:51.252Z,101034.41
2023-03-22T00:33:19.066Z,101018.88
2023-03-22T00:35:52.512Z,101027.78
2023-03-22T00:38:21.905Z,101029.78
2023-03-22T00:40:50.865Z,101032.09
2023-03-22T00:43:17.980Z,101026.22
2023-03-22T00:45:44.808Z,101020.31
2023-03-22T00:48:13.687Z,101018.41
2023-03-22T00:50:42.979Z,101010.63
2023-03-22T00:53:11.092Z,101010.22
2023-03-22T00:55:37.685Z,101010.56
2023-03-22T00:58:04.375Z,101007.03
2023-03-22T01:00:33.632Z,101004.72
2023-03-22T01:03:07.170Z,100998.09
2023-03-22T01:05:35.120Z,101001.59
2023-03-22T01:08:08.983Z,100992.75
2023-03-22T01:10:38.061Z,100986.22
2023-03-22T01:13:07.374Z,100973.06
2023-03-22T01:15:34.353Z,100969.97
2023-03-22T01:18:09.047Z,100968.41
2023-03-22T01:20:36.842Z,100967.25
2023-03-22T01:23:06.731Z,100961.81
2023-03-22T01:25:33.542Z,100964.94
2023-03-22T01:28:02.675Z,100948.66
2023-03-22T01:30:30.103Z,100950.56
2023-03-22T01:33:18.018Z,100946.72
2023-03-22T01:35:51.437Z,100942.44
2023-03-22T01:38:18.299Z,100941.63
2023-03-22T01:40:44.782Z,100934.66
2023-03-22T01:43:17.003Z,100931.53
2023-03-22T01:45:48.298Z,100935.38
2023-03-22T01:48:17.687Z,100929.19
2023-03-22T01:50:56.376Z,100910.16
2023-03-22T01:53:27.198Z,100912.91
2023-03-22T01:55:59.613Z,100908.22
2023-03-22T01:58:26.785Z,100901.22
2023-03-22T02:00:55.364Z,100892.28
2023-03-22T02:03:31.056Z,100891.25
2023-03-22T02:06:00.070Z,100883.94
2023-03-22T02:08:29.279Z,100876.56
2023-03-22T02:10:56.022Z,100865.72
2023-03-22T02:13:32.627Z,100862.22
2023-03-22T02:16:09.988Z,100864.53
2023-03-22T02:18:45.716Z,100863.75
2023-03-22T02:21:33.047Z,100863.34
2023-03-22T02:24:27.971Z,100856.69
2023-03-22T02:27:19.960Z,100849.31
2023-03-22T02:29:54.731Z,100845.81
2023-03-22T02:32:38.890Z,100841.53
2023-03-22T02:35:14.271Z,100840.75
2023-03-22T02:38:06.094Z,100836.91
2023-03-22T02:40:44.137Z,100833.78
2023-03-22T02:43:38.978Z,100827.59
2023-03-22T02:46:10.561Z,100827.22
2023-03-22T02:48:47.265Z,100818.31
2023-03-22T02:51:21.435Z,100811.31
2023-03-22T02:54:04.376Z,100811.72
2023-03-22T02:56:41.217Z,100809.44
2023-03-22T02:59:12.520Z,100809.06
2023-03-22T03:01:45.647Z,100809.06
2023-03-22T03:04:19.562Z,100793.91
2023-03-22T03:06:49.018Z,100795.91
2023-03-22T03:09:19.328Z,100794.00
2023-03-22T03:11:49.389Z,100797.88
2023-03-22T03:14:28.070Z,100787.44
2023-03-22T03:17:06.237Z,100789.72
2023-03-22T03:19:48.710Z,100792.81
2023-03-22T03:22:27.397Z,100790.47
2023-03-22T03:25:06.846Z,100807.13
2023-03-22T03:27:44.250Z,100795.09
2023-03-22T03:30:22.575Z,100810.97
2023-03-22T03:33:01.638Z,100804.00
2023-03-22T03:35:37.712Z,100793.91
2023-03-22T03:38:10.800Z,100793.91
2023-03-22T03:40:46.010Z,100794.69
2023-03-22T03:43:15.001Z,100798.94
2023-03-22T03:45:52.150Z,100800.09
2023-03-22T03:48:31.882Z,100795.44
2023-03-22T03:51:01.163Z,100791.63
2023-03-22T03:53:29.293Z,100783.88
2023-03-22T03:55:59.006Z,100788.97
2023-03-22T03:58:25.692Z,100787.06
2023-03-22T04:00:52.497Z,100784.38
2023-03-22T04:03:20.459Z,100787.50
2023-03-22T04:05:47.227Z,100785.19
2023-03-22T04:08:14.084Z,100798.41
2023-03-22T04:10:42.037Z,100791.03
2023-03-22T04:13:09.004Z,100785.97
2023-03-22T04:15:39.108Z,100789.50
2023-03-22T04:18:07.121Z,100784.47
2023-03-22T04:20:34.765Z,100790.31
2023-03-22T04:23:03.986Z,100787.22
2023-03-22T04:25:31.709Z,100773.66
2023-03-22T04:28:00.714Z,100771.31
2023-03-22T04:30:27.581Z,100774.84
2023-03-22T04:32:54.951Z,100775.25
2023-03-22T04:35:21.702Z,100771.00
2023-03-22T04:37:51.225Z,100764.03
2023-03-22T04:40:17.966Z,100759.38
2023-03-22T04:42:44.835Z,100762.88
2023-03-22T04:45:12.846Z,100763.69
2023-03-22T04:47:40.357Z,100759.78
2023-03-22T04:50:13.013Z,100760.16
2023-03-22T04:52:41.679Z,100766.00
2023-03-22T04:55:08.827Z,100752.81
2023-03-22T04:57:36.732Z,100760.56
2023-03-22T05:00:08.385Z,100753.94
2023-03-22T05:02:40.005Z,100748.53
2023-03-22T05:05:07.844Z,100747.75
2023-03-22T05:07:37.381Z,100748.53
2023-03-22T05:10:04.440Z,100731.09
2023-03-22T05:12:31.258Z,100738.44
2023-03-22T05:15:00.943Z,100743.88
2023-03-22T05:17:30.505Z,100730.69
2023-03-22T05:19:57.117Z,100739.25
2023-03-22T05:22:23.763Z,100743.09
2023-03-22T05:24:50.342Z,100736.47
2023-03-22T05:27:17.175Z,100738.78
2023-03-22T05:29:45.180Z,100732.59
2023-03-22T05:32:12.173Z,100737.63
2023-03-22T05:34:38.972Z,100731.41
2023-03-22T05:37:05.694Z,100725.19
2023-03-22T05:39:33.476Z,100726.72
2023-03-22T05:42:01.701Z,100725.56
2023-03-22T05:44:29.624Z,100726.34
2023-03-22T05:46:56.274Z,100721.28
2023-03-22T05:49:23.946Z,100729.81
2023-03-22T05:51:58.650Z,100722.81
2023-03-22T05:54:25.357Z,100715.84
2023-03-22T05:56:53.127Z,100708.47
2023-03-22T05:59:21.727Z,100705.81
2023-03-22T06:01:48.394Z,100714.72
2023-03-22T06:04:16.187Z,100707.72
2023-03-22T06:06:43.069Z,100711.59
2023-03-22T06:09:16.760Z,100712.00
2023-03-22T06:11:43.835Z,100707.00
2023-03-22T06:14:10.811Z,100707.41
2023-03-22T06:16:37.577Z,100707.81
2023-03-22T06:19:04.384Z,100713.22
2023-03-22T06:21:31.053Z,100714.41
2023-03-22T06:23:58.840Z,100711.28
2023-03-22T06:26:31.780Z,100710.91
2023-03-22T06:29:00.071Z,100715.59
2023-03-22T06:31:26.808Z,100707.84
2023-03-22T06:33:56.114Z,100709.44
2023-03-22T06:36:22.810Z,100707.56
2023-03-22T06:38:51.190Z,100713.03
2023-03-22T06:41:20.014Z,100715.03
2023-03-22T06:43:50.028Z,100711.16
2023-03-22T06:46:17.223Z,100707.72
2023-03-22T06:48:45.268Z,100708.47
2023-03-22T06:51:13.905Z,100720.16
2023-03-22T06:53:40.684Z,100720.16
2023-03-22T06:56:09.978Z,100713.97
2023-03-22T06:58:37.366Z,100713.59
2023-03-22T07:01:04.166Z,100719.47
2023-03-22T07:03:39.418Z,100721.84
2023-03-22T07:06:13.034Z,100721.47
2023-03-22T07:08:40.286Z,100719.53
2023-03-22T07:11:07.416Z,100716.81
2023-03-22T07:13:34.178Z,100714.09
2023-03-22T07:16:02.567Z,100710.97
2023-03-22T07:18:30.516Z,100709.81
2023-03-22T07:20:57.287Z,100723.03
2023-03-22T07:23:24.213Z,100712.16
2023-03-22T07:25:52.087Z,100723.81
2023-03-22T07:28:22.547Z,100713.31
2023-03-22T07:30:49.225Z,100715.28
2023-03-22T07:35:57.792Z,100720.38
2023-03-22T07:38:24.413Z,100711.44
2023-03-22T07:40:54.724Z,100711.06
2023-03-22T07:43:22.651Z,100714.19
2023-03-22T07:45:50.854Z,100716.16
2023-03-22T07:48:20.653Z,100696.72
2023-03-22T07:50:48.164Z,100719.63
2023-03-22T07:53:14.804Z,100712.63
2023-03-22T07:55:44.393Z,100717.69
2023-03-22T07:58:12.117Z,100713.44
2023-03-22T08:00:38.978Z,100712.28
2023-03-22T08:03:06.007Z,100716.19
2023-03-22T08:05:32.886Z,100723.59
2023-03-22T08:08:01.493Z,100713.50
2023-03-22T08:10:28.222Z,100713.16
2023-03-22T08:12:54.958Z,100712.75
2023-03-22T08:15:22.711Z,100714.31
2023-03-22T08:17:49.918Z,100711.97
2023-03-22T08:20:18.448Z,100708.09
2023-03-22T08:22:45.655Z,100715.09
2023-03-22T08:25:12.510Z,100709.66
2023-03-22T08:27:39.145Z,100707.34
2023-03-22T08:30:06.359Z,100712.38
2023-03-22T08:32:34.449Z,100706.94
2023-03-22T08:35:01.028Z,100699.94
2023-03-22T08:37:27.879Z,100708.50
2023-03-22T08:39:54.421Z,100709.28
2023-03-22T08:42:22.420Z,100710.09
2023-03-22T08:44:58.010Z,100701.16
2023-03-22T08:47:24.635Z,100718.63
2023-03-22T08:49:58.412Z,100701.16
2023-03-22T08:52:26.805Z,100693.75
2023-03-22T08:54:53.516Z,100700.34
2023-03-22T08:57:22.062Z,100699.97
2023-03-22T08:59:48.822Z,100701.91
2023-03-22T09:02:15.696Z,100701.94
2023-03-22T09:04:43.191Z,100705.78
2023-03-22T09:07:09.979Z,100711.25
2023-03-22T09:09:37.036Z,100711.25
2023-03-22T09:12:03.782Z,100705.44
2023-03-22T09:14:30.283Z,100702.28
2023-03-22T09:17:01.760Z,100706.56
2023-03-22T09:19:28.925Z,100706.56
2023-03-22T09:21:58.438Z,100719.44
2023-03-22T09:24:26.322Z,100711.25
2023-03-22T09:26:52.898Z,100727.59
2023-03-22T09:29:19.784Z,100710.47
2023-03-22T09:31:48.928Z,100714.38
2023-03-22T09:34:15.812Z,100719.03
2023-03-22T09:36:42.525Z,100721.75
2023-03-22T09:39:10.142Z,100723.31
2023-03-22T09:41:38.676Z,100711.22
2023-03-22T09:44:09.460Z,100724.84
2023-03-22T09:46:40.709Z,100716.69
2023-03-22T09:49:16.452Z,100712.81
2023-03-22T09:51:47.613Z,100714.34
2023-03-22T09:54:22.322Z,100717.84
2023-03-22T09:56:58.324Z,100712.78
2023-03-22T09:59:28.067Z,100709.66
2023-03-22T10:02:21.869Z,100703.03
2023-03-22T10:05:03.339Z,100705.38
2023-03-22T10:07:41.775Z,100702.66
2023-03-22T10:10:20.477Z,100700.72
2023-03-22T10:13:13.913Z,100702.25
2023-03-22T10:15:53.619Z,100703.44
2023-03-22T10:18:24.964Z,100698.00
2023-03-22T10:21:01.447Z,100699.53
2023-03-22T10:23:40.890Z,100701.09
2023-03-22T10:26:25.549Z,100702.25
2023-03-22T10:29:01.564Z,100701.50
2023-03-22T10:31:31.306Z,100708.09
2023-03-22T10:34:03.690Z,100706.91
2023-03-22T10:36:35.137Z,100703.06
2023-03-22T10:39:16.700Z,100705.75
2023-03-22T10:41:46.470Z,100715.09
2023-03-22T10:44:19.559Z,100706.53
2023-03-22T10:46:49.192Z,100716.25
2023-03-22T10:49:26.033Z,100708.84
2023-03-22T10:52:05.005Z,100710.41
2023-03-22T10:54:32.580Z,100706.13
2023-03-22T10:56:59.198Z,100716.22
2023-03-22T10:59:45.299Z,100705.34
2023-03-22T11:02:19.225Z,100700.69
2023-03-22T11:04:49.273Z,100699.16
2023-03-22T11:07:28.962Z,100701.88
2023-03-22T11:10:11.234Z,100681.28
2023-03-22T11:12:42.289Z,100688.28
2023-03-22T11:15:28.726Z,100688.69
2023-03-22T11:18:06.251Z,100693.34
2023-03-22T11:20:34.933Z,100691.03
2023-03-22T11:23:05.240Z,100683.63
2023-03-22T11:25:35.761Z,100689.47
2023-03-22T11:28:05.429Z,100680.91
2023-03-22T11:30:35.622Z,100681.69
2023-03-22T11:33:17.666Z,100694.53
2023-03-22T11:35:47.548Z,100668.88
2023-03-22T11:38:34.021Z,100681.28
2023-03-22T11:41:03.281Z,100685.22
2023-03-22T11:43:43.889Z,100693.34
2023-03-22T11:46:12.681Z,100685.19
2023-03-22T11:48:42.407Z,100699.59
2023-03-22T11:51:18.977Z,100687.94
2023-03-22T11:53:48.024Z,100698.44
2023-03-22T11:56:22.075Z,100703.06
2023-03-22T11:58:59.695Z,100708.16
2023-03-22T12:01:37.358Z,100706.56
2023-03-22T12:04:14.103Z,100713.19
2023-03-22T12:06:47.745Z,100720.97
2023-03-22T12:09:41.370Z,100705.03
2023-03-22T12:12:17.866Z,100717.44
2023-03-22T12:14:54.932Z,100705.78
2023-03-22T12:17:28.644Z,100699.56
2023-03-22T12:22:59.617Z,100698.78
2023-03-22T12:25:32.242Z,100701.53
2023-03-22T12:28:06.857Z,100705.03
2023-03-22T12:30:44.770Z,100698.44
2023-03-22T12:33:27.756Z,100708.91
2023-03-22T12:35:59.036Z,100703.47
2023-03-22T12:38:30.453Z,100717.09
2023-03-22T12:46:45.284Z,100696.47
2023-03-22T12:49:25.674Z,100701.91
2023-03-22T12:51:56.419Z,100691.41
2023-03-22T12:54:25.818Z,100686.75
2023-03-22T12:56:55.500Z,100682.09
2023-03-22T12:59:26.830Z,100683.63
2023-03-22T13:01:57.940Z,100692.19
2023-03-22T13:04:31.912Z,100685.59
2023-03-22T13:07:16.622Z,100689.09
2023-03-22T13:09:47.247Z,100682.09
2023-03-22T13:12:17.034Z,100682.47
2023-03-22T13:14:51.144Z,100700.78
2023-03-22T13:17:27.730Z,100705.81
2023-03-22T13:19:59.593Z,100689.09
2023-03-22T13:22:48.150Z,100692.97
2023-03-22T13:25:39.752Z,100699.97
2023-03-22T13:28:25.532Z,100700.38
2023-03-22T13:30:56.399Z,100692.22
2023-03-22T13:33:29.791Z,100688.69
2023-03-22T13:35:59.502Z,100686.75
2023-03-22T13:38:30.942Z,100688.31
2023-03-22T13:41:07.231Z,100695.69
2023-03-22T13:43:51.525Z,100693.75
2023-03-22T13:46:20.123Z,100687.16
2023-03-22T13:49:17.411Z,100693.34
2023-03-22T13:51:45.380Z,100692.22
2023-03-22T13:54:15.480Z,100685.59
2023-03-22T13:56:45.487Z,100679.75
2023-03-22T13:59:31.027Z,100678.97
2023-03-22T14:02:24.013Z,100681.31
2023-03-22T14:05:01.473Z,100687.91
2023-03-22T14:07:41.729Z,100684.03
2023-03-22T14:10:35.492Z,100684.81
2023-03-22T14:13:16.611Z,100672.75
2023-03-22T14:15:51.455Z,100672.75
2023-03-22T14:18:27.897Z,100659.53
2023-03-22T14:21:01.201Z,100662.25
